createdAt,value
2022-12-25T00:00:29.697Z,100355.35
2022-12-25T00:05:52.388Z,100356.59
2022-12-25T00:11:03.801Z,100353.86
2022-12-25T00:16:14.842Z,100362.19
2022-12-25T00:21:18.628Z,100364.81
2022-12-25T00:26:21.994Z,100377.39
2022-12-25T00:31:25.244Z,100385.80
2022-12-25T00:36:28.092Z,100388.92
2022-12-25T00:41:49.564Z,100390.65
2022-12-25T00:46:52.400Z,100393.94
2022-12-25T00:51:55.343Z,100393.94
2022-12-25T00:56:58.338Z,100404.45
2022-12-25T01:02:21.189Z,100413.11
2022-12-25T01:07:25.915Z,100421.64
2022-12-25T01:12:29.061Z,100431.86
2022-12-25T01:17:31.795Z,100437.73
2022-12-25T01:22:34.532Z,100448.76
2022-12-25T01:27:37.941Z,100447.57
2022-12-25T01:32:40.615Z,100450.14
2022-12-25T01:37:43.275Z,100454.08
2022-12-25T01:42:46.105Z,100453.73
2022-12-25T01:47:48.843Z,100450.65
2022-12-25T01:52:52.434Z,100443.95
2022-12-25T01:57:55.305Z,100444.47
2022-12-25T02:02:59.194Z,100441.51
2022-12-25T02:08:10.328Z,100440.40
2022-12-25T02:13:15.857Z,100447.08
2022-12-25T02:18:32.950Z,100456.73
2022-12-25T02:23:38.687Z,100459.35
2022-12-25T02:29:00.750Z,100462.45
2022-12-25T02:34:06.156Z,100475.20
2022-12-25T02:39:42.681Z,100476.39
2022-12-25T02:45:06.429Z,100471.75
2022-12-25T02:50:28.655Z,100462.65
2022-12-25T02:55:55.792Z,100461.84
2022-12-25T03:01:43.396Z,100469.09
2022-12-25T03:07:14.487Z,100475.11
2022-12-25T03:12:24.811Z,100477.40
2022-12-25T03:17:27.678Z,100477.63
2022-12-25T03:22:51.092Z,100471.13
2022-12-25T03:27:56.177Z,100470.83
2022-12-25T03:33:43.192Z,100475.80
2022-12-25T03:38:50.346Z,100480.11
2022-12-25T03:44:17.934Z,100477.54
2022-12-25T03:50:04.813Z,100473.23
2022-12-25T03:55:30.653Z,100480.13
2022-12-25T04:00:51.821Z,100490.80
2022-12-25T04:06:13.348Z,100498.39
2022-12-25T04:11:34.630Z,100485.15
2022-12-25T04:16:56.233Z,100482.92
2022-12-25T04:22:17.770Z,100484.31
2022-12-25T04:27:38.925Z,100491.35
2022-12-25T04:33:00.315Z,100504.98
2022-12-25T04:38:03.018Z,100502.60
2022-12-25T04:43:05.765Z,100502.30
2022-12-25T04:48:08.496Z,100500.02
2022-12-25T04:53:11.234Z,100498.77
2022-12-25T04:58:14.075Z,100502.73
2022-12-25T05:03:18.191Z,100504.79
2022-12-25T05:08:20.953Z,100500.46
2022-12-25T05:13:24.024Z,100510.43
2022-12-25T05:18:26.757Z,100510.56
2022-12-25T05:23:29.522Z,100510.34
2022-12-25T05:28:33.679Z,100516.02
2022-12-25T05:33:36.433Z,100526.90
2022-12-25T05:38:39.545Z,100524.38
2022-12-25T05:43:42.224Z,100520.81
2022-12-25T05:48:45.084Z,100532.21
2022-12-25T05:53:48.083Z,100539.98
2022-12-25T05:58:50.832Z,100542.54
2022-12-25T06:03:53.720Z,100540.60
2022-12-25T06:08:56.508Z,100535.91
2022-12-25T06:13:59.239Z,100551.23
2022-12-25T06:19:02.049Z,100555.88
2022-12-25T06:24:05.011Z,100552.95
2022-12-25T06:29:08.347Z,100559.88
2022-12-25T06:34:11.173Z,100567.63
2022-12-25T06:39:13.872Z,100576.92
2022-12-25T06:44:16.766Z,100586.80
2022-12-25T06:49:19.812Z,100588.40
2022-12-25T06:54:22.852Z,100595.71
2022-12-25T06:59:25.591Z,100621.10
2022-12-25T07:04:39.280Z,100639.77
2022-12-25T07:09:42.804Z,100639.98
2022-12-25T07:14:50.357Z,100640.91
2022-12-25T07:19:53.211Z,100647.44
2022-12-25T07:24:55.904Z,100659.86
2022-12-25T07:29:58.612Z,100668.89
2022-12-25T07:35:01.308Z,100674.98
2022-12-25T07:40:04.550Z,100676.42
2022-12-25T07:45:07.959Z,100673.22
2022-12-25T07:50:12.246Z,100682.95
2022-12-25T07:55:14.968Z,100691.65
2022-12-25T08:00:18.238Z,100696.04
2022-12-25T08:05:20.824Z,100704.70
2022-12-25T08:10:23.530Z,100711.29
2022-12-25T08:15:26.223Z,100729.76
2022-12-25T08:20:28.937Z,100738.56
2022-12-25T08:25:32.463Z,100736.56
2022-12-25T08:30:37.781Z,100735.58
2022-12-25T08:35:42.861Z,100737.88
2022-12-25T08:40:45.556Z,100743.98
2022-12-25T08:45:49.211Z,100744.05
2022-12-25T08:50:53.691Z,100759.48
2022-12-25T08:56:01.547Z,100769.88
2022-12-25T09:01:05.513Z,100769.02
2022-12-25T09:06:11.582Z,100768.16
2022-12-25T09:11:15.326Z,100765.42
2022-12-25T09:16:20.682Z,100765.62
2022-12-25T09:21:23.709Z,100767.38
2022-12-25T09:26:27.351Z,100778.66
2022-12-25T09:31:30.602Z,100782.84
2022-12-25T09:36:33.378Z,100781.98
2022-12-25T09:42:24.017Z,100787.88
2022-12-25T09:47:31.707Z,100786.66
2022-12-25T09:52:43.603Z,100793.94
2022-12-25T09:57:51.568Z,100793.94
2022-12-25T10:03:16.429Z,100792.54
2022-12-25T10:08:47.927Z,100804.16
2022-12-25T10:14:25.473Z,100803.30
2022-12-25T10:19:45.205Z,100803.30
2022-12-25T10:24:54.837Z,100803.98
2022-12-25T10:29:59.025Z,100809.53
2022-12-25T10:35:01.770Z,100809.73
2022-12-25T10:40:23.597Z,100807.80
2022-12-25T10:45:26.340Z,100791.33
2022-12-25T10:50:29.135Z,100783.02
2022-12-25T10:55:33.325Z,100793.25
2022-12-25T11:00:36.121Z,100783.89
2022-12-25T11:05:39.134Z,100785.62
2022-12-25T11:10:42.737Z,100782.34
2022-12-25T11:15:48.951Z,100779.90
2022-12-25T11:20:53.001Z,100780.26
2022-12-25T11:26:02.672Z,100791.16
2022-12-25T11:31:19.258Z,100798.44
2022-12-25T11:36:46.141Z,100799.98
2022-12-25T11:41:53.981Z,100804.13
2022-12-25T11:46:59.966Z,100807.59
2022-12-25T11:52:02.732Z,100811.05
2022-12-25T11:57:07.168Z,100811.41
2022-12-25T12:02:28.836Z,100820.77
2022-12-25T12:07:34.203Z,100825.26
2022-12-25T12:12:53.185Z,100824.71
2022-12-25T12:18:07.371Z,100819.20
2022-12-25T12:23:16.666Z,100815.04
2022-12-25T12:28:39.438Z,100809.30
2022-12-25T12:33:59.517Z,100802.89
2022-12-25T12:39:02.620Z,100792.66
2022-12-25T12:44:06.814Z,100793.50
2022-12-25T12:49:20.429Z,100790.20
2022-12-25T12:54:27.524Z,100795.75
2022-12-25T12:59:44.457Z,100787.81
2022-12-25T13:05:04.189Z,100790.08
2022-12-25T13:10:12.969Z,100800.63
2022-12-25T13:15:15.750Z,100804.43
2022-12-25T13:20:30.325Z,100806.70
2022-12-25T13:25:33.041Z,100805.84
2022-12-25T13:30:35.782Z,100809.30
2022-12-25T13:35:43.466Z,100809.27
2022-12-25T13:41:14.244Z,100804.05
2022-12-25T13:46:26.849Z,100806.30
2022-12-25T13:51:29.859Z,100799.89
2022-12-25T13:56:35.206Z,100802.98
2022-12-25T14:01:43.166Z,100802.98
2022-12-25T14:06:46.152Z,100803.48
2022-12-25T14:11:52.596Z,100793.45
2022-12-25T14:16:59.343Z,100790.00
2022-12-25T14:22:21.816Z,100787.23
2022-12-25T14:27:28.274Z,100796.02
2022-12-25T14:32:38.765Z,100803.28
2022-12-25T14:37:42.296Z,100817.30
2022-12-25T14:43:01.844Z,100834.58
2022-12-25T14:48:37.010Z,100841.27
2022-12-25T14:54:00.355Z,100842.32
2022-12-25T14:59:03.122Z,100848.89
2022-12-25T15:04:17.402Z,100843.02
2022-12-25T15:09:21.045Z,100837.29
2022-12-25T15:14:25.316Z,100837.63
2022-12-25T15:19:36.933Z,100826.06
2022-12-25T15:24:40.651Z,100831.25
2022-12-25T15:30:09.206Z,100836.24
2022-12-25T15:35:06.918Z,100837.81
2022-12-25T15:40:12.718Z,100825.71
2022-12-25T15:45:24.427Z,100815.48
2022-12-25T15:50:27.216Z,100803.20
2022-12-25T15:55:30.060Z,100787.27
2022-12-25T16:00:32.830Z,100787.09
2022-12-25T16:05:35.804Z,100787.60
2022-12-25T16:10:39.230Z,100798.46
2022-12-25T16:15:45.117Z,100828.87
2022-12-25T16:20:47.964Z,100830.45
2022-12-25T16:25:51.379Z,100814.05
2022-12-25T16:30:54.176Z,100819.42
2022-12-25T16:35:57.494Z,100822.02
2022-12-25T16:41:01.291Z,100822.91
2022-12-25T16:46:13.206Z,100819.66
2022-12-25T16:51:19.385Z,100812.55
2022-12-25T16:56:28.665Z,100815.64
2022-12-25T17:01:31.456Z,100814.07
2022-12-25T17:06:34.279Z,100806.13
2022-12-25T17:11:37.012Z,100806.83
2022-12-25T17:16:40.662Z,100808.73
2022-12-25T17:21:43.458Z,100797.31
2022-12-25T17:26:46.304Z,100799.92
2022-12-25T17:31:49.182Z,100794.20
2022-12-25T17:36:53.648Z,100787.64
2022-12-25T17:41:56.500Z,100791.09
2022-12-25T17:46:59.494Z,100789.84
2022-12-25T17:52:02.424Z,100788.11
2022-12-25T17:57:05.160Z,100786.38
2022-12-25T18:02:09.071Z,100789.66
2022-12-25T18:07:12.946Z,100773.75
2022-12-25T18:12:15.687Z,100766.34
2022-12-25T18:17:18.410Z,100767.73
2022-12-25T18:22:22.237Z,100767.39
2022-12-25T18:27:25.008Z,100762.55
2022-12-25T18:32:28.386Z,100749.77
2022-12-25T18:37:34.437Z,100748.05
2022-12-25T18:42:40.695Z,100746.15
2022-12-25T18:47:44.047Z,100742.52
2022-12-25T18:52:51.564Z,100750.13
2022-12-25T18:57:55.229Z,100743.40
2022-12-25T19:02:59.097Z,100739.42
2022-12-25T19:08:02.642Z,100731.98
2022-12-25T19:13:05.961Z,100727.67
2022-12-25T19:18:08.588Z,100715.05
2022-12-25T19:23:11.338Z,100706.94
2022-12-25T19:28:14.051Z,100694.83
2022-12-25T19:33:18.058Z,100692.41
2022-12-25T19:38:20.931Z,100691.54
2022-12-25T19:43:23.671Z,100682.04
2022-12-25T19:48:26.478Z,100680.47
2022-12-25T19:53:30.207Z,100672.86
2022-12-25T19:58:32.970Z,100665.25
2022-12-25T20:03:45.528Z,100670.45
2022-12-25T20:08:50.990Z,100679.77
2022-12-25T20:13:54.884Z,100679.78
2022-12-25T20:18:58.792Z,100675.82
2022-12-25T20:24:01.579Z,100666.46
2022-12-25T20:29:04.603Z,100669.41
2022-12-25T20:34:08.805Z,100669.06
2022-12-25T20:39:13.014Z,100670.96
2022-12-25T20:44:15.798Z,100671.31
2022-12-25T20:49:18.745Z,100669.23
2022-12-25T20:54:21.522Z,100657.30
2022-12-25T20:59:24.340Z,100653.67
2022-12-25T21:04:27.196Z,100649.86
2022-12-25T21:09:29.911Z,100638.42
2022-12-25T21:14:32.646Z,100623.53
2022-12-25T21:19:35.371Z,100620.27
2022-12-25T21:24:38.256Z,100611.95
2022-12-25T21:29:41.094Z,100608.48
2022-12-25T21:34:43.805Z,100592.73
2022-12-25T21:39:50.119Z,100577.33
2022-12-25T21:44:52.806Z,100568.84
2022-12-25T21:50:14.191Z,100571.78
2022-12-25T21:55:16.886Z,100571.45
2022-12-25T22:00:20.267Z,100563.99
2022-12-25T22:05:41.889Z,100548.41
2022-12-25T22:10:44.634Z,100540.94
2022-12-25T22:16:06.172Z,100541.29
2022-12-25T22:21:08.870Z,100519.30
2022-12-25T22:26:15.863Z,100510.28
2022-12-25T22:31:21.757Z,100501.98
2022-12-25T22:36:24.480Z,100487.60
2022-12-25T22:41:33.304Z,100474.64
2022-12-25T22:46:36.579Z,100468.73
2022-12-25T22:51:39.307Z,100459.39
2022-12-25T22:56:44.488Z,100447.28
2022-12-25T23:01:47.225Z,100431.19
2022-12-25T23:06:50.382Z,100430.84
2022-12-25T23:11:55.427Z,100431.00
2022-12-25T23:16:59.704Z,100420.59
2022-12-25T23:22:28.742Z,100403.61
2022-12-25T23:27:31.516Z,100397.52
2022-12-25T23:32:34.293Z,100380.87
2022-12-25T23:37:37.042Z,100390.90
2022-12-25T23:42:39.762Z,100403.20
2022-12-25T23:47:42.477Z,100405.25
2022-12-25T23:52:45.178Z,100402.12
2022-12-25T23:57:47.974Z,100399.36
